createdAt,value
2023-04-15T00:00:59.757Z,3.80
2023-04-15T00:03:28.890Z,3.80
2023-04-15T00:05:58.744Z,3.30
2023-04-15T00:08:26.776Z,3.20
2023-04-15T00:10:54.792Z,3.50
2023-04-15T00:13:22.853Z,3.50
2023-04-15T00:15:50.796Z,3.10
2023-04-15T00:18:18.750Z,3.40
2023-04-15T00:20:47.268Z,2.60
2023-04-15T00:23:15.176Z,2.40
2023-04-15T00:25:43.092Z,2.30
2023-04-15T00:28:11.279Z,2.60
2023-04-15T00:30:39.356Z,2.60
2023-04-15T00:33:08.057Z,3.30
2023-04-15T00:35:39.392Z,2.80
2023-04-15T00:38:10.077Z,3.10
2023-04-15T00:40:38.264Z,3.80
2023-04-15T00:43:07.148Z,3.10
2023-04-15T00:45:35.092Z,3.60
2023-04-15T00:48:03.849Z,3.50
2023-04-15T00:50:32.011Z,3.80
2023-04-15T00:53:00.129Z,3.80
2023-04-15T00:55:28.130Z,3.20
2023-04-15T00:57:57.536Z,3.70
2023-04-15T01:00:25.688Z,3.50
2023-04-15T01:02:53.978Z,3.60
2023-04-15T01:05:22.419Z,3.50
2023-04-15T01:07:50.738Z,3.30
2023-04-15T01:10:18.785Z,3.70
2023-04-15T01:12:47.081Z,3.30
2023-04-15T01:15:16.210Z,3.10
2023-04-15T01:17:44.229Z,3.40
2023-04-15T01:20:12.721Z,3.10
2023-04-15T01:22:41.431Z,3.60
2023-04-15T01:25:18.435Z,3.20
2023-04-15T01:27:46.592Z,3.30
2023-04-15T01:30:14.611Z,3.20
2023-04-15T01:32:42.686Z,3.10
2023-04-15T01:35:10.786Z,2.90
2023-04-15T01:37:38.786Z,2.50
2023-04-15T01:40:08.092Z,2.50
2023-04-15T01:42:37.717Z,2.10
2023-04-15T01:45:07.327Z,2.20
2023-04-15T01:47:35.336Z,1.70
2023-04-15T01:50:03.598Z,1.60
2023-04-15T01:52:32.229Z,1.40
2023-04-15T01:55:00.488Z,1.30
2023-04-15T01:57:28.525Z,1.30
2023-04-15T01:59:56.777Z,1.40
2023-04-15T02:02:25.038Z,1.30
2023-04-15T02:04:53.652Z,1.40
2023-04-15T02:07:21.978Z,1.50
2023-04-15T02:09:50.219Z,1.50
2023-04-15T02:12:18.212Z,1.80
2023-04-15T02:14:46.284Z,1.90
2023-04-15T02:17:14.367Z,1.70
2023-04-15T02:19:44.659Z,1.90
2023-04-15T02:22:19.060Z,1.90
2023-04-15T02:24:47.771Z,1.80
2023-04-15T02:27:17.854Z,2.00
2023-04-15T02:29:47.592Z,2.20
2023-04-15T02:32:15.620Z,2.00
2023-04-15T02:34:43.580Z,1.90
2023-04-15T02:37:13.708Z,1.50
2023-04-15T02:39:41.755Z,1.40
2023-04-15T02:42:11.623Z,1.40
2023-04-15T02:44:39.547Z,1.20
2023-04-15T02:47:07.569Z,1.70
2023-04-15T02:49:35.898Z,2.80
2023-04-15T02:52:03.865Z,3.90
2023-04-15T02:54:34.075Z,4.70
2023-04-15T02:57:02.252Z,4.50
2023-04-15T02:59:30.267Z,5.10
2023-04-15T03:02:01.087Z,4.50
2023-04-15T03:04:31.007Z,4.80
2023-04-15T03:06:59.080Z,4.60
2023-04-15T03:09:27.651Z,3.90
2023-04-15T03:11:57.055Z,3.80
2023-04-15T03:14:25.806Z,3.90
2023-04-15T03:16:53.855Z,4.00
2023-04-15T03:19:21.763Z,2.80
2023-04-15T03:21:49.649Z,3.00
2023-04-15T03:24:18.617Z,2.80
2023-04-15T03:26:46.647Z,2.70
2023-04-15T03:29:17.084Z,2.90
2023-04-15T03:31:45.028Z,4.40
2023-04-15T03:34:12.973Z,4.90
2023-04-15T03:36:41.500Z,4.60
2023-04-15T03:39:09.593Z,5.50
2023-04-15T03:41:37.621Z,5.30
2023-04-15T03:44:05.733Z,4.80
2023-04-15T03:46:33.683Z,4.60
2023-04-15T03:49:02.479Z,5.90
2023-04-15T03:51:31.599Z,5.00
2023-04-15T03:53:59.680Z,5.50
2023-04-15T03:56:27.901Z,5.60
2023-04-15T03:58:55.930Z,5.40
2023-04-15T04:01:23.888Z,6.10
2023-04-15T04:03:52.481Z,5.40
2023-04-15T04:06:20.911Z,6.00
2023-04-15T04:08:48.904Z,6.20
2023-04-15T04:11:17.367Z,5.80
2023-04-15T04:13:45.462Z,6.20
2023-04-15T04:16:13.560Z,6.10
2023-04-15T04:18:41.644Z,6.10
2023-04-15T04:21:10.163Z,6.90
2023-04-15T04:23:38.118Z,6.00
2023-04-15T04:26:06.262Z,6.50
2023-04-15T04:28:35.422Z,6.80
2023-04-15T04:31:03.367Z,7.20
2023-04-15T04:33:31.314Z,7.20
2023-04-15T04:35:59.355Z,7.20
2023-04-15T04:38:27.296Z,6.80
2023-04-15T04:40:55.416Z,6.70
2023-04-15T04:43:23.381Z,6.80
2023-04-15T04:45:51.520Z,6.30
2023-04-15T04:48:20.076Z,5.30
2023-04-15T04:50:48.468Z,4.20
2023-04-15T04:53:16.413Z,3.70
2023-04-15T04:55:44.373Z,2.80
2023-04-15T04:58:12.587Z,3.00
2023-04-15T05:00:41.009Z,2.70
2023-04-15T05:03:09.324Z,2.50
2023-04-15T05:05:39.654Z,3.30
2023-04-15T05:08:07.905Z,3.40
2023-04-15T05:10:36.410Z,6.30
2023-04-15T05:13:04.323Z,6.70
2023-04-15T05:15:33.155Z,7.10
2023-04-15T05:18:01.453Z,8.90
2023-04-15T05:20:29.633Z,7.10
2023-04-15T05:22:57.594Z,7.50
2023-04-15T05:25:26.104Z,6.90
2023-04-15T05:27:54.108Z,6.20
2023-04-15T05:30:22.404Z,6.00
2023-04-15T05:32:50.478Z,8.20
2023-04-15T05:35:19.135Z,8.00
2023-04-15T05:37:47.194Z,7.90
2023-04-15T05:40:15.468Z,7.20
2023-04-15T05:42:43.400Z,8.70
2023-04-15T05:45:11.606Z,9.20
2023-04-15T05:47:39.562Z,8.20
2023-04-15T05:50:08.306Z,8.20
2023-04-15T05:52:37.050Z,8.30
2023-04-15T05:55:05.634Z,8.20
2023-04-15T05:57:33.662Z,7.10
2023-04-15T06:00:01.655Z,6.60
2023-04-15T06:02:37.997Z,7.00
2023-04-15T06:05:10.101Z,6.50
2023-04-15T06:07:38.919Z,6.40
2023-04-15T06:10:07.998Z,5.50
2023-04-15T06:12:36.204Z,4.70
2023-04-15T06:15:05.045Z,5.60
2023-04-15T06:17:33.053Z,6.50
2023-04-15T06:20:01.106Z,6.80
2023-04-15T06:22:29.194Z,6.90
2023-04-15T06:24:57.222Z,10.60
2023-04-15T06:27:25.259Z,11.90
2023-04-15T06:29:53.234Z,11.60
2023-04-15T06:32:21.385Z,13.20
2023-04-15T06:34:49.378Z,13.70
2023-04-15T06:37:17.254Z,12.70
2023-04-15T06:39:45.244Z,11.80
2023-04-15T06:42:13.401Z,10.20
2023-04-15T06:44:42.478Z,9.00
2023-04-15T06:47:10.488Z,9.30
2023-04-15T06:49:38.729Z,4.90
2023-04-15T06:52:06.826Z,4.10
2023-04-15T06:54:34.782Z,5.20
2023-04-15T06:57:02.909Z,5.80
2023-04-15T06:59:31.266Z,6.80
2023-04-15T07:01:59.243Z,7.60
2023-04-15T07:04:28.108Z,9.70
2023-04-15T07:06:56.913Z,9.20
2023-04-15T07:09:25.699Z,6.40
2023-04-15T07:11:53.816Z,5.50
2023-04-15T07:14:21.849Z,6.80
2023-04-15T07:16:50.000Z,5.60
2023-04-15T07:19:17.908Z,4.60
2023-04-15T07:21:45.924Z,4.30
2023-04-15T07:24:17.034Z,3.90
2023-04-15T07:26:45.368Z,5.00
2023-04-15T07:29:13.416Z,1.80
2023-04-15T07:31:42.380Z,1.80
2023-04-15T07:34:10.874Z,1.60
2023-04-15T07:36:39.030Z,1.10
2023-04-15T07:39:07.229Z,1.10
2023-04-15T07:41:35.261Z,1.10
2023-04-15T07:44:03.184Z,0.80
2023-04-15T07:46:31.168Z,0.80
2023-04-15T07:48:59.223Z,7.50
2023-04-15T07:51:27.335Z,7.10
2023-04-15T07:53:55.280Z,5.60
2023-04-15T07:56:23.485Z,4.30
2023-04-15T07:58:51.671Z,3.80
2023-04-15T08:01:19.637Z,1.50
2023-04-15T08:03:48.614Z,1.00
2023-04-15T08:06:16.800Z,0.80
2023-04-15T08:08:44.722Z,0.80
2023-04-15T08:11:13.192Z,0.80
2023-04-15T08:13:41.288Z,1.10
2023-04-15T08:16:13.944Z,0.70
2023-04-15T08:18:41.989Z,0.80
2023-04-15T08:21:10.995Z,1.10
2023-04-15T08:23:39.635Z,1.00
2023-04-15T08:26:08.823Z,0.90
2023-04-15T08:28:39.655Z,5.30
2023-04-15T08:31:08.197Z,5.70
2023-04-15T08:33:36.372Z,5.50
2023-04-15T08:36:04.897Z,3.00
2023-04-15T08:38:33.116Z,3.10
2023-04-15T08:41:08.393Z,4.20
2023-04-15T08:43:45.895Z,4.40
2023-04-15T08:46:15.678Z,3.30
2023-04-15T08:48:44.749Z,3.30
2023-04-15T08:51:16.117Z,2.90
2023-04-15T08:53:47.958Z,1.60
2023-04-15T08:56:16.999Z,1.90
2023-04-15T08:58:46.594Z,1.20
2023-04-15T09:01:15.156Z,1.20
2023-04-15T09:03:44.318Z,0.80
2023-04-15T09:06:12.941Z,1.20
2023-04-15T09:08:41.449Z,1.10
2023-04-15T09:11:09.415Z,0.90
2023-04-15T09:13:37.513Z,1.20
2023-04-15T09:16:06.772Z,0.90
2023-04-15T09:18:36.867Z,1.00
2023-04-15T09:21:14.146Z,1.10
2023-04-15T09:23:56.314Z,0.90
2023-04-15T09:26:35.327Z,0.90
2023-04-15T09:29:07.944Z,1.10
2023-04-15T09:31:37.080Z,1.00
2023-04-15T09:34:05.792Z,0.90
2023-04-15T09:36:47.034Z,1.00
2023-04-15T09:39:16.152Z,0.80
2023-04-15T09:41:45.109Z,0.80
2023-04-15T09:44:27.036Z,0.70
2023-04-15T09:46:54.949Z,0.70
2023-04-15T09:49:23.405Z,1.00
2023-04-15T09:52:03.970Z,0.80
2023-04-15T09:54:38.272Z,0.80
2023-04-15T09:57:08.144Z,0.60
2023-04-15T09:59:36.358Z,0.70
2023-04-15T10:02:06.504Z,1.10
2023-04-15T10:04:39.363Z,0.90
2023-04-15T10:07:09.803Z,1.20
2023-04-15T10:09:39.180Z,1.10
2023-04-15T10:12:07.499Z,1.40
2023-04-15T10:14:38.826Z,1.20
2023-04-15T10:17:08.364Z,1.20
2023-04-15T10:19:38.029Z,1.00
2023-04-15T10:22:06.676Z,1.40
2023-04-15T10:24:35.052Z,1.10
2023-04-15T10:27:07.085Z,1.10
2023-04-15T10:29:35.177Z,0.70
2023-04-15T10:32:03.861Z,0.80
2023-04-15T10:34:32.843Z,1.00
2023-04-15T10:37:04.806Z,1.00
2023-04-15T10:39:38.915Z,1.10
2023-04-15T10:42:15.424Z,1.10
2023-04-15T10:44:54.339Z,0.90
2023-04-15T10:47:22.717Z,1.10
2023-04-15T10:49:57.087Z,1.00
2023-04-15T10:52:27.854Z,0.90
2023-04-15T10:55:03.432Z,0.70
2023-04-15T10:57:42.403Z,0.90
2023-04-15T11:00:17.528Z,0.90
2023-04-15T11:02:52.478Z,0.70
2023-04-15T11:05:23.140Z,0.90
2023-04-15T11:07:54.404Z,0.80
2023-04-15T11:10:25.805Z,0.80
2023-04-15T11:12:58.116Z,1.10
2023-04-15T11:15:45.114Z,0.90
2023-04-15T11:18:17.977Z,0.70
2023-04-15T11:20:48.388Z,1.00
2023-04-15T11:23:19.179Z,0.90
2023-04-15T11:25:48.574Z,0.80
2023-04-15T11:28:16.927Z,1.20
2023-04-15T11:30:45.418Z,1.00
2023-04-15T11:33:14.135Z,0.80
2023-04-15T11:35:42.663Z,0.80
2023-04-15T11:38:13.872Z,1.00
2023-04-15T11:40:46.757Z,1.00
2023-04-15T11:43:21.155Z,0.70
2023-04-15T11:46:03.201Z,0.70
2023-04-15T11:48:36.228Z,0.80
2023-04-15T11:51:08.264Z,0.70
2023-04-15T11:53:42.727Z,0.80
2023-04-15T11:56:17.889Z,0.70
2023-04-15T11:58:46.711Z,1.10
2023-04-15T12:01:14.853Z,0.90
2023-04-15T12:03:45.636Z,1.70
2023-04-15T12:06:22.709Z,1.20
2023-04-15T12:09:12.133Z,1.10
2023-04-15T12:11:49.938Z,1.30
2023-04-15T12:14:17.999Z,1.40
2023-04-15T12:16:50.327Z,1.10
2023-04-15T12:19:25.384Z,0.90
2023-04-15T12:22:00.512Z,1.00
2023-04-15T12:24:31.872Z,0.90
2023-04-15T12:27:07.858Z,1.00
2023-04-15T12:29:38.687Z,1.10
2023-04-15T12:32:11.867Z,0.90
2023-04-15T12:34:45.204Z,1.00
2023-04-15T12:37:14.488Z,1.00
2023-04-15T12:39:44.335Z,1.10
2023-04-15T12:42:13.099Z,1.10
2023-04-15T12:44:41.413Z,0.70
2023-04-15T12:47:10.971Z,0.60
2023-04-15T12:49:39.804Z,0.70
2023-04-15T12:52:08.025Z,0.70
2023-04-15T12:54:36.583Z,0.40
2023-04-15T12:57:07.164Z,0.60
2023-04-15T12:59:36.589Z,0.40
2023-04-15T13:02:04.876Z,0.40
2023-04-15T13:04:33.412Z,0.50
2023-04-15T13:07:02.765Z,0.60
2023-04-15T13:09:31.400Z,0.40
2023-04-15T13:11:59.540Z,0.80
2023-04-15T13:14:27.601Z,0.60
2023-04-15T13:16:55.724Z,0.70
2023-04-15T13:19:23.829Z,0.70
2023-04-15T13:21:51.810Z,0.30
2023-04-15T13:24:19.736Z,1.30
2023-04-15T13:26:50.105Z,0.70
2023-04-15T13:29:18.353Z,0.80
2023-04-15T13:31:46.385Z,0.60
2023-04-15T13:34:14.433Z,0.60
2023-04-15T13:36:42.399Z,0.50
2023-04-15T13:39:10.361Z,0.50
2023-04-15T13:41:38.404Z,0.50
2023-04-15T13:44:07.318Z,0.60
2023-04-15T13:46:35.577Z,0.50
2023-04-15T13:49:03.599Z,0.40
2023-04-15T13:51:31.979Z,0.40
2023-04-15T13:53:59.952Z,0.40
2023-04-15T13:56:28.078Z,0.50
2023-04-15T13:58:59.035Z,0.50
2023-04-15T14:01:27.224Z,0.60
2023-04-15T14:03:56.213Z,0.80
2023-04-15T14:06:24.918Z,0.80
2023-04-15T14:08:53.157Z,0.90
2023-04-15T14:11:21.252Z,0.50
2023-04-15T14:13:49.288Z,0.50
2023-04-15T14:16:17.498Z,0.60
2023-04-15T14:18:45.544Z,0.60
2023-04-15T14:21:13.767Z,0.60
2023-04-15T14:23:41.889Z,0.60
2023-04-15T14:26:10.182Z,0.60
2023-04-15T14:28:39.484Z,0.60
2023-04-15T14:31:07.827Z,0.70
2023-04-15T14:33:36.208Z,1.50
2023-04-15T14:36:04.504Z,4.50
2023-04-15T14:38:38.459Z,0.60
2023-04-15T14:41:08.178Z,0.70
2023-04-15T14:43:36.811Z,0.60
2023-04-15T14:46:05.216Z,0.60
2023-04-15T14:48:33.286Z,0.90
2023-04-15T14:51:01.353Z,0.70
2023-04-15T14:53:29.715Z,0.50
2023-04-15T14:55:57.889Z,0.60
2023-04-15T14:58:25.962Z,0.60
2023-04-15T15:00:54.084Z,0.60
2023-04-15T15:03:22.248Z,0.60
2023-04-15T15:05:50.847Z,0.60
2023-04-15T15:08:19.055Z,0.80
2023-04-15T15:10:49.322Z,0.80
2023-04-15T15:13:19.148Z,0.80
2023-04-15T15:15:49.410Z,0.70
2023-04-15T15:18:19.267Z,1.10
2023-04-15T15:20:47.989Z,1.00
2023-04-15T15:23:16.362Z,0.80
2023-04-15T15:26:04.902Z,1.00
2023-04-15T15:28:33.055Z,0.70
2023-04-15T15:31:01.141Z,0.70
2023-04-15T15:33:30.195Z,0.90
2023-04-15T15:35:58.816Z,0.90
2023-04-15T15:38:26.848Z,1.00
2023-04-15T15:40:54.934Z,1.30
2023-04-15T15:43:23.131Z,1.00
2023-04-15T15:45:52.973Z,1.10
2023-04-15T15:48:23.971Z,0.90
2023-04-15T15:50:52.628Z,0.90
2023-04-15T15:53:40.579Z,1.00
2023-04-15T15:56:08.558Z,1.10
2023-04-15T15:58:37.027Z,0.80
2023-04-15T16:01:06.008Z,0.80
2023-04-15T16:03:34.315Z,0.80
2023-04-15T16:06:03.879Z,0.70
2023-04-15T16:08:31.916Z,0.90
2023-04-15T16:11:00.177Z,1.00
2023-04-15T16:13:28.163Z,1.00
2023-04-15T16:15:56.186Z,0.90
2023-04-15T16:18:24.278Z,0.70
2023-04-15T16:20:52.274Z,0.80
2023-04-15T16:23:20.668Z,0.90
2023-04-15T16:25:50.560Z,0.70
2023-04-15T16:28:26.415Z,0.90
2023-04-15T16:30:57.258Z,0.70
2023-04-15T16:33:26.708Z,0.80
2023-04-15T16:35:54.744Z,0.90
2023-04-15T16:38:22.836Z,0.90
2023-04-15T16:40:52.004Z,0.90
2023-04-15T16:43:20.195Z,0.90
2023-04-15T16:45:51.563Z,0.70
2023-04-15T16:48:20.719Z,0.90
2023-04-15T16:50:49.433Z,0.80
2023-04-15T16:53:17.562Z,0.90
2023-04-15T16:55:45.748Z,1.00
2023-04-15T16:58:13.789Z,0.80
2023-04-15T17:00:41.805Z,0.80
2023-04-15T17:03:09.975Z,0.90
2023-04-15T17:05:38.380Z,0.80
2023-04-15T17:08:06.447Z,1.10
2023-04-15T17:10:34.576Z,0.80
2023-04-15T17:13:02.488Z,1.00
2023-04-15T17:15:30.790Z,1.40
2023-04-15T17:17:58.814Z,1.00
2023-04-15T17:20:26.846Z,1.50
2023-04-15T17:22:55.078Z,1.40
2023-04-15T17:25:23.658Z,1.30
2023-04-15T17:27:51.550Z,1.10
2023-04-15T17:30:19.545Z,1.10
2023-04-15T17:32:47.572Z,1.20
2023-04-15T17:35:15.615Z,1.10
2023-04-15T17:37:43.681Z,1.30
2023-04-15T17:40:12.164Z,1.40
2023-04-15T17:42:40.751Z,1.00
2023-04-15T17:45:09.312Z,1.20
2023-04-15T17:47:37.609Z,1.60
2023-04-15T17:50:08.075Z,1.80
2023-04-15T17:52:36.041Z,1.90
2023-04-15T17:55:04.365Z,2.60
2023-04-15T17:57:32.367Z,9.20
2023-04-15T18:00:00.470Z,17.80
2023-04-15T18:02:28.816Z,8.50
2023-04-15T18:04:57.273Z,4.70
2023-04-15T18:07:25.689Z,3.30
2023-04-15T18:09:55.864Z,4.20
2023-04-15T18:12:23.930Z,4.40
2023-04-15T18:14:51.898Z,4.00
2023-04-15T18:17:20.639Z,4.10
2023-04-15T18:19:48.902Z,3.50
2023-04-15T18:22:17.016Z,4.50
2023-04-15T18:24:44.919Z,4.60
2023-04-15T18:27:12.927Z,4.80
2023-04-15T18:29:41.516Z,4.10
2023-04-15T18:32:10.121Z,4.30
2023-04-15T18:34:38.450Z,3.90
2023-04-15T18:37:06.454Z,4.80
2023-04-15T18:39:34.343Z,5.30
2023-04-15T18:42:02.373Z,5.10
2023-04-15T18:44:30.454Z,4.50
2023-04-15T18:46:58.383Z,5.30
2023-04-15T18:49:27.542Z,4.90
2023-04-15T18:51:55.612Z,4.90
2023-04-15T18:54:23.658Z,5.10
2023-04-15T18:56:52.406Z,5.20
2023-04-15T18:59:29.460Z,4.50
2023-04-15T19:01:59.928Z,4.00
2023-04-15T19:04:31.355Z,4.70
2023-04-15T19:06:59.637Z,4.10
2023-04-15T19:09:28.847Z,4.50
2023-04-15T19:11:57.676Z,4.40
2023-04-15T19:14:25.783Z,3.90
2023-04-15T19:16:53.752Z,6.20
2023-04-15T19:19:21.734Z,8.20
2023-04-15T19:21:50.421Z,9.00
2023-04-15T19:24:19.667Z,8.00
2023-04-15T19:26:50.381Z,6.60
2023-04-15T19:29:19.087Z,6.40
2023-04-15T19:31:47.075Z,6.20
2023-04-15T19:34:15.456Z,5.60
2023-04-15T19:36:43.556Z,5.60
2023-04-15T19:39:11.700Z,5.10
2023-04-15T19:41:39.702Z,4.90
2023-04-15T19:44:07.781Z,4.10
2023-04-15T19:46:35.875Z,4.10
2023-04-15T19:49:04.135Z,2.90
2023-04-15T19:51:32.696Z,3.10
2023-04-15T19:54:00.770Z,2.40
2023-04-15T19:56:29.386Z,2.60
2023-04-15T19:58:57.325Z,2.30
2023-04-15T20:01:25.403Z,2.80
2023-04-15T20:03:54.546Z,2.50
2023-04-15T20:06:22.668Z,2.40
2023-04-15T20:08:50.894Z,2.30
2023-04-15T20:11:18.998Z,2.10
2023-04-15T20:13:47.008Z,5.10
2023-04-15T20:16:15.180Z,6.90
2023-04-15T20:18:43.072Z,7.80
2023-04-15T20:21:11.154Z,9.10
2023-04-15T20:23:40.863Z,8.50
2023-04-15T20:26:08.808Z,9.20
2023-04-15T20:28:36.751Z,7.90
2023-04-15T20:31:04.631Z,8.30
2023-04-15T20:33:32.814Z,7.50
2023-04-15T20:36:01.229Z,5.20
2023-04-15T20:38:29.163Z,3.90
2023-04-15T20:40:58.176Z,3.40
2023-04-15T20:43:26.178Z,3.00
2023-04-15T20:45:56.622Z,3.40
2023-04-15T20:48:26.292Z,3.10
2023-04-15T20:50:54.325Z,3.40
2023-04-15T20:53:22.508Z,2.90
2023-04-15T20:55:50.706Z,3.60
2023-04-15T20:58:18.626Z,3.70
2023-04-15T21:00:47.230Z,4.40
2023-04-15T21:03:15.500Z,3.50
2023-04-15T21:05:43.556Z,3.80
2023-04-15T21:08:13.996Z,4.70
2023-04-15T21:10:41.863Z,4.40
2023-04-15T21:13:09.835Z,4.20
2023-04-15T21:15:37.764Z,4.10
2023-04-15T21:18:06.037Z,4.30
2023-04-15T21:20:33.977Z,4.30
2023-04-15T21:23:02.009Z,3.80
2023-04-15T21:25:29.976Z,4.50
2023-04-15T21:27:58.470Z,4.10
2023-04-15T21:30:26.602Z,4.10
2023-04-15T21:32:55.913Z,4.00
2023-04-15T21:35:23.883Z,3.80
2023-04-15T21:37:51.883Z,3.80
2023-04-15T21:40:20.294Z,3.90
2023-04-15T21:42:49.262Z,4.20
2023-04-15T21:45:17.425Z,4.10
2023-04-15T21:48:05.349Z,3.60
2023-04-15T21:50:33.132Z,4.40
2023-04-15T21:53:01.158Z,4.30
2023-04-15T21:55:29.225Z,4.00
2023-04-15T21:57:57.202Z,3.60
2023-04-15T22:00:25.202Z,4.20
2023-04-15T22:02:53.341Z,4.70
2023-04-15T22:05:21.424Z,4.40
2023-04-15T22:07:49.487Z,3.90
2023-04-15T22:10:17.562Z,4.70
2023-04-15T22:12:45.444Z,3.80
2023-04-15T22:15:13.711Z,3.60
2023-04-15T22:17:41.751Z,3.80
2023-04-15T22:20:10.362Z,3.80
2023-04-15T22:22:44.165Z,3.50
2023-04-15T22:25:12.910Z,3.70
2023-04-15T22:27:40.879Z,3.70
2023-04-15T22:30:10.571Z,3.70
2023-04-15T22:32:38.556Z,5.00
2023-04-15T22:35:06.924Z,4.20
2023-04-15T22:37:35.277Z,3.90
2023-04-15T22:40:03.532Z,4.50
2023-04-15T22:42:31.480Z,4.20
2023-04-15T22:44:59.357Z,4.30
2023-04-15T22:47:27.400Z,5.00
2023-04-15T22:49:55.327Z,4.30
2023-04-15T22:52:30.175Z,4.10
2023-04-15T22:54:59.885Z,3.90
2023-04-15T22:57:28.666Z,4.20
2023-04-15T22:59:56.708Z,4.00
2023-04-15T23:02:24.938Z,3.60
2023-04-15T23:04:53.185Z,3.60
2023-04-15T23:07:21.349Z,3.40
2023-04-15T23:09:49.323Z,3.90
2023-04-15T23:12:17.289Z,3.70
2023-04-15T23:14:45.280Z,4.00
2023-04-15T23:17:13.183Z,3.60
2023-04-15T23:19:41.221Z,4.10
2023-04-15T23:22:10.734Z,4.80
2023-04-15T23:24:38.762Z,5.20
2023-04-15T23:27:06.702Z,6.10
2023-04-15T23:29:34.611Z,6.10
2023-04-15T23:32:02.666Z,6.20
2023-04-15T23:34:30.852Z,5.80
2023-04-15T23:36:58.758Z,5.60
2023-04-15T23:39:26.786Z,5.20
2023-04-15T23:41:54.913Z,6.00
2023-04-15T23:44:23.377Z,6.30
2023-04-15T23:46:51.468Z,6.00
2023-04-15T23:49:20.490Z,5.60
2023-04-15T23:51:48.800Z,5.30
2023-04-15T23:54:16.692Z,5.50
2023-04-15T23:56:44.545Z,5.20
2023-04-15T23:59:12.570Z,5.90
